sensor_id;sensor_type;location;lat;lon;timestamp;P1;durP1;ratioP1;P2;durP2;ratioP2
72771;SDS011;60894;42.544;1.516;2023-05-10T00:02:02;1.47;;;0.40;;
72771;SDS011;60894;42.544;1.516;2023-05-10T00:04:29;0.95;;;0.50;;
72771;SDS011;60894;42.544;1.516;2023-05-10T00:06:56;1.88;;;0.50;;
72771;SDS011;60894;42.544;1.516;2023-05-10T00:09:23;3.00;;;0.45;;
72771;SDS011;60894;42.544;1.516;2023-05-10T00:11:51;1.55;;;0.60;;
72771;SDS011;60894;42.544;1.516;2023-05-10T00:14:18;0.43;;;0.30;;
72771;SDS011;60894;42.544;1.516;2023-05-10T00:16:45;3.15;;;0.90;;
72771;SDS011;60894;42.544;1.516;2023-05-10T00:19:12;2.03;;;0.43;;
72771;SDS011;60894;42.544;1.516;2023-05-10T00:21:39;0.68;;;0.30;;
72771;SDS011;60894;42.544;1.516;2023-05-10T00:24:06;0.80;;;0.40;;
72771;SDS011;60894;42.544;1.516;2023-05-10T00:26:33;2.37;;;0.40;;
72771;SDS011;60894;42.544;1.516;2023-05-10T00:29:01;1.15;;;0.50;;
72771;SDS011;60894;42.544;1.516;2023-05-10T00:31:28;1.25;;;0.40;;
72771;SDS011;60894;42.544;1.516;2023-05-10T00:33:55;1.40;;;0.50;;
72771;SDS011;60894;42.544;1.516;2023-05-10T00:36:22;3.60;;;0.50;;
72771;SDS011;60894;42.544;1.516;2023-05-10T00:38:49;2.83;;;0.40;;
72771;SDS011;60894;42.544;1.516;2023-05-10T00:41:16;0.55;;;0.30;;
72771;SDS011;60894;42.544;1.516;2023-05-10T00:43:43;0.95;;;0.50;;
72771;SDS011;60894;42.544;1.516;2023-05-10T00:46:11;2.05;;;0.43;;
72771;SDS011;60894;42.544;1.516;2023-05-10T00:48:40;3.40;;;0.60;;
72771;SDS011;60894;42.544;1.516;2023-05-10T00:51:07;2.00;;;0.40;;
72771;SDS011;60894;42.544;1.516;2023-05-10T00:53:34;0.73;;;0.40;;
72771;SDS011;60894;42.544;1.516;2023-05-10T00:56:01;1.50;;;0.40;;
72771;SDS011;60894;42.544;1.516;2023-05-10T00:58:29;4.85;;;2.00;;
72771;SDS011;60894;42.544;1.516;2023-05-10T01:00:56;3.63;;;0.93;;
72771;SDS011;60894;42.544;1.516;2023-05-10T01:03:25;4.13;;;1.10;;
72771;SDS011;60894;42.544;1.516;2023-05-10T01:05:52;3.67;;;0.80;;
72771;SDS011;60894;42.544;1.516;2023-05-10T01:08:19;6.05;;;1.45;;
72771;SDS011;60894;42.544;1.516;2023-05-10T01:10:46;7.47;;;2.15;;
72771;SDS011;60894;42.544;1.516;2023-05-10T01:13:15;3.10;;;0.60;;
72771;SDS011;60894;42.544;1.516;2023-05-10T01:15:49;2.10;;;0.40;;
72771;SDS011;60894;42.544;1.516;2023-05-10T01:18:16;1.15;;;0.50;;
72771;SDS011;60894;42.544;1.516;2023-05-10T01:20:48;3.75;;;0.40;;
72771;SDS011;60894;42.544;1.516;2023-05-10T01:23:31;1.25;;;0.40;;
72771;SDS011;60894;42.544;1.516;2023-05-10T01:29:24;1.47;;;0.47;;
72771;SDS011;60894;42.544;1.516;2023-05-10T01:35:02;1.23;;;0.30;;
72771;SDS011;60894;42.544;1.516;2023-05-10T01:37:35;2.50;;;0.40;;
72771;SDS011;60894;42.544;1.516;2023-05-10T01:40:21;1.65;;;0.40;;
72771;SDS011;60894;42.544;1.516;2023-05-10T01:42:53;2.93;;;0.40;;
72771;SDS011;60894;42.544;1.516;2023-05-10T01:45:27;1.88;;;0.38;;
72771;SDS011;60894;42.544;1.516;2023-05-10T01:48:06;1.35;;;0.60;;
72771;SDS011;60894;42.544;1.516;2023-05-10T01:50:38;4.93;;;0.70;;
72771;SDS011;60894;42.544;1.516;2023-05-10T01:53:09;1.80;;;0.60;;
72771;SDS011;60894;42.544;1.516;2023-05-10T01:55:39;0.80;;;0.40;;
72771;SDS011;60894;42.544;1.516;2023-05-10T01:58:13;0.47;;;0.30;;
72771;SDS011;60894;42.544;1.516;2023-05-10T02:00:44;0.90;;;0.38;;
72771;SDS011;60894;42.544;1.516;2023-05-10T02:03:13;0.38;;;0.30;;
72771;SDS011;60894;42.544;1.516;2023-05-10T02:05:42;1.40;;;0.50;;
72771;SDS011;60894;42.544;1.516;2023-05-10T02:08:10;0.77;;;0.20;;
72771;SDS011;60894;42.544;1.516;2023-05-10T02:10:38;2.80;;;0.70;;
72771;SDS011;60894;42.544;1.516;2023-05-10T02:13:06;1.13;;;0.40;;
72771;SDS011;60894;42.544;1.516;2023-05-10T02:15:34;1.98;;;0.50;;
72771;SDS011;60894;42.544;1.516;2023-05-10T02:18:03;0.40;;;0.28;;
72771;SDS011;60894;42.544;1.516;2023-05-10T02:20:32;3.57;;;0.40;;
72771;SDS011;60894;42.544;1.516;2023-05-10T02:23:01;0.80;;;0.30;;
72771;SDS011;60894;42.544;1.516;2023-05-10T02:25:30;2.13;;;0.45;;
72771;SDS011;60894;42.544;1.516;2023-05-10T02:27:59;0.60;;;0.30;;
72771;SDS011;60894;42.544;1.516;2023-05-10T02:30:30;0.70;;;0.30;;
72771;SDS011;60894;42.544;1.516;2023-05-10T02:32:58;0.70;;;0.40;;
72771;SDS011;60894;42.544;1.516;2023-05-10T02:35:27;1.30;;;0.40;;
72771;SDS011;60894;42.544;1.516;2023-05-10T02:37:56;1.65;;;0.70;;
72771;SDS011;60894;42.544;1.516;2023-05-10T02:40:24;2.00;;;0.45;;
72771;SDS011;60894;42.544;1.516;2023-05-10T02:42:54;0.80;;;0.30;;
72771;SDS011;60894;42.544;1.516;2023-05-10T02:45:24;1.83;;;0.40;;
72771;SDS011;60894;42.544;1.516;2023-05-10T02:47:55;1.50;;;0.43;;
72771;SDS011;60894;42.544;1.516;2023-05-10T02:50:23;0.95;;;0.43;;
72771;SDS011;60894;42.544;1.516;2023-05-10T02:52:54;1.00;;;0.43;;
72771;SDS011;60894;42.544;1.516;2023-05-10T02:55:28;1.55;;;0.55;;
72771;SDS011;60894;42.544;1.516;2023-05-10T02:58:00;1.77;;;0.50;;
72771;SDS011;60894;42.544;1.516;2023-05-10T03:00:27;1.15;;;0.40;;
72771;SDS011;60894;42.544;1.516;2023-05-10T03:02:54;0.68;;;0.40;;
72771;SDS011;60894;42.544;1.516;2023-05-10T03:05:21;4.35;;;0.60;;
72771;SDS011;60894;42.544;1.516;2023-05-10T03:07:49;3.33;;;0.60;;
72771;SDS011;60894;42.544;1.516;2023-05-10T03:10:18;1.60;;;0.60;;
72771;SDS011;60894;42.544;1.516;2023-05-10T03:12:49;1.90;;;0.60;;
72771;SDS011;60894;42.544;1.516;2023-05-10T03:15:25;0.70;;;0.40;;
72771;SDS011;60894;42.544;1.516;2023-05-10T03:18:01;2.30;;;0.77;;
72771;SDS011;60894;42.544;1.516;2023-05-10T03:20:35;0.73;;;0.43;;
72771;SDS011;60894;42.544;1.516;2023-05-10T03:23:11;2.50;;;0.67;;
72771;SDS011;60894;42.544;1.516;2023-05-10T03:25:48;1.67;;;0.50;;
72771;SDS011;60894;42.544;1.516;2023-05-10T03:28:16;0.77;;;0.38;;
72771;SDS011;60894;42.544;1.516;2023-05-10T03:30:44;1.67;;;0.70;;
72771;SDS011;60894;42.544;1.516;2023-05-10T03:33:12;2.17;;;0.50;;
72771;SDS011;60894;42.544;1.516;2023-05-10T03:35:39;1.13;;;0.60;;
72771;SDS011;60894;42.544;1.516;2023-05-10T03:38:06;1.52;;;0.60;;
72771;SDS011;60894;42.544;1.516;2023-05-10T03:40:33;0.60;;;0.40;;
72771;SDS011;60894;42.544;1.516;2023-05-10T03:43:01;2.10;;;0.63;;
72771;SDS011;60894;42.544;1.516;2023-05-10T03:45:28;3.38;;;0.70;;
72771;SDS011;60894;42.544;1.516;2023-05-10T03:47:56;1.33;;;0.50;;
72771;SDS011;60894;42.544;1.516;2023-05-10T03:50:23;1.58;;;0.60;;
72771;SDS011;60894;42.544;1.516;2023-05-10T03:52:51;2.67;;;0.50;;
72771;SDS011;60894;42.544;1.516;2023-05-10T03:55:18;2.47;;;0.93;;
72771;SDS011;60894;42.544;1.516;2023-05-10T03:57:45;1.13;;;0.68;;
72771;SDS011;60894;42.544;1.516;2023-05-10T04:00:16;0.87;;;0.57;;
72771;SDS011;60894;42.544;1.516;2023-05-10T04:02:43;3.13;;;0.60;;
72771;SDS011;60894;42.544;1.516;2023-05-10T04:05:10;1.27;;;0.60;;
72771;SDS011;60894;42.544;1.516;2023-05-10T04:07:37;1.40;;;0.52;;
72771;SDS011;60894;42.544;1.516;2023-05-10T04:10:04;2.92;;;0.57;;
72771;SDS011;60894;42.544;1.516;2023-05-10T04:12:32;1.20;;;0.60;;
72771;SDS011;60894;42.544;1.516;2023-05-10T04:14:59;1.35;;;0.50;;
72771;SDS011;60894;42.544;1.516;2023-05-10T04:17:27;2.58;;;0.63;;
72771;SDS011;60894;42.544;1.516;2023-05-10T04:19:54;2.88;;;0.60;;
72771;SDS011;60894;42.544;1.516;2023-05-10T04:22:22;1.50;;;0.50;;
72771;SDS011;60894;42.544;1.516;2023-05-10T04:24:49;3.53;;;0.80;;
72771;SDS011;60894;42.544;1.516;2023-05-10T04:27:16;0.80;;;0.47;;
72771;SDS011;60894;42.544;1.516;2023-05-10T04:29:43;3.40;;;0.70;;
72771;SDS011;60894;42.544;1.516;2023-05-10T04:32:10;1.58;;;0.70;;
72771;SDS011;60894;42.544;1.516;2023-05-10T04:34:38;2.53;;;0.70;;
72771;SDS011;60894;42.544;1.516;2023-05-10T04:37:05;3.83;;;0.80;;
72771;SDS011;60894;42.544;1.516;2023-05-10T04:39:32;2.95;;;0.63;;
72771;SDS011;60894;42.544;1.516;2023-05-10T04:42:00;1.77;;;0.60;;
72771;SDS011;60894;42.544;1.516;2023-05-10T04:44:28;2.42;;;0.70;;
72771;SDS011;60894;42.544;1.516;2023-05-10T04:46:55;2.33;;;0.80;;
72771;SDS011;60894;42.544;1.516;2023-05-10T04:49:21;1.67;;;0.60;;
72771;SDS011;60894;42.544;1.516;2023-05-10T04:51:50;2.72;;;0.90;;
72771;SDS011;60894;42.544;1.516;2023-05-10T04:54:17;2.97;;;0.82;;
72771;SDS011;60894;42.544;1.516;2023-05-10T04:56:44;2.70;;;0.80;;
72771;SDS011;60894;42.544;1.516;2023-05-10T04:59:11;2.80;;;1.05;;
72771;SDS011;60894;42.544;1.516;2023-05-10T05:01:38;3.20;;;0.90;;
72771;SDS011;60894;42.544;1.516;2023-05-10T05:04:05;2.08;;;0.90;;
72771;SDS011;60894;42.544;1.516;2023-05-10T05:06:32;2.75;;;0.90;;
72771;SDS011;60894;42.544;1.516;2023-05-10T05:09:01;2.22;;;1.00;;
72771;SDS011;60894;42.544;1.516;2023-05-10T05:11:28;3.47;;;0.70;;
72771;SDS011;60894;42.544;1.516;2023-05-10T05:13:55;3.07;;;0.73;;
72771;SDS011;60894;42.544;1.516;2023-05-10T05:16:24;1.92;;;0.77;;
72771;SDS011;60894;42.544;1.516;2023-05-10T05:18:51;5.93;;;1.80;;
72771;SDS011;60894;42.544;1.516;2023-05-10T05:21:18;3.05;;;0.73;;
72771;SDS011;60894;42.544;1.516;2023-05-10T05:23:46;3.08;;;1.10;;
72771;SDS011;60894;42.544;1.516;2023-05-10T05:26:14;2.67;;;0.93;;
72771;SDS011;60894;42.544;1.516;2023-05-10T05:28:41;11.48;;;4.28;;
72771;SDS011;60894;42.544;1.516;2023-05-10T05:31:08;27.63;;;13.98;;
72771;SDS011;60894;42.544;1.516;2023-05-10T05:33:35;16.88;;;8.70;;
72771;SDS011;60894;42.544;1.516;2023-05-10T05:36:03;8.90;;;4.63;;
72771;SDS011;60894;42.544;1.516;2023-05-10T05:38:31;8.43;;;4.40;;
72771;SDS011;60894;42.544;1.516;2023-05-10T05:40:58;7.95;;;4.00;;
72771;SDS011;60894;42.544;1.516;2023-05-10T05:43:26;8.43;;;4.00;;
72771;SDS011;60894;42.544;1.516;2023-05-10T05:45:54;8.32;;;3.72;;
72771;SDS011;60894;42.544;1.516;2023-05-10T05:48:22;4.65;;;2.38;;
72771;SDS011;60894;42.544;1.516;2023-05-10T05:50:50;8.30;;;3.57;;
72771;SDS011;60894;42.544;1.516;2023-05-10T05:53:20;6.28;;;2.50;;
72771;SDS011;60894;42.544;1.516;2023-05-10T05:55:53;4.88;;;1.73;;
72771;SDS011;60894;42.544;1.516;2023-05-10T05:58:20;4.63;;;1.95;;
72771;SDS011;60894;42.544;1.516;2023-05-10T06:00:49;4.57;;;2.45;;
72771;SDS011;60894;42.544;1.516;2023-05-10T06:03:16;6.37;;;2.70;;
72771;SDS011;60894;42.544;1.516;2023-05-10T06:05:43;2.55;;;1.10;;
72771;SDS011;60894;42.544;1.516;2023-05-10T06:08:10;15.07;;;7.78;;
72771;SDS011;60894;42.544;1.516;2023-05-10T06:10:37;7.97;;;4.40;;
72771;SDS011;60894;42.544;1.516;2023-05-10T06:13:04;10.35;;;4.68;;
72771;SDS011;60894;42.544;1.516;2023-05-10T06:15:31;12.73;;;5.90;;
72771;SDS011;60894;42.544;1.516;2023-05-10T06:18:00;11.30;;;6.93;;
72771;SDS011;60894;42.544;1.516;2023-05-10T06:20:27;11.52;;;3.67;;
72771;SDS011;60894;42.544;1.516;2023-05-10T06:22:54;4.95;;;2.00;;
72771;SDS011;60894;42.544;1.516;2023-05-10T06:25:21;10.40;;;3.92;;
72771;SDS011;60894;42.544;1.516;2023-05-10T06:27:47;5.80;;;2.80;;
72771;SDS011;60894;42.544;1.516;2023-05-10T06:30:14;7.32;;;3.05;;
72771;SDS011;60894;42.544;1.516;2023-05-10T06:32:41;6.75;;;2.50;;
72771;SDS011;60894;42.544;1.516;2023-05-10T06:35:11;10.40;;;3.90;;
72771;SDS011;60894;42.544;1.516;2023-05-10T06:37:38;7.97;;;2.50;;
72771;SDS011;60894;42.544;1.516;2023-05-10T06:40:06;8.57;;;3.60;;
72771;SDS011;60894;42.544;1.516;2023-05-10T06:42:34;8.30;;;3.25;;
72771;SDS011;60894;42.544;1.516;2023-05-10T06:45:01;8.32;;;3.88;;
72771;SDS011;60894;42.544;1.516;2023-05-10T06:47:28;8.55;;;2.67;;
72771;SDS011;60894;42.544;1.516;2023-05-10T06:49:55;5.18;;;1.77;;
72771;SDS011;60894;42.544;1.516;2023-05-10T06:52:23;7.73;;;3.37;;
72771;SDS011;60894;42.544;1.516;2023-05-10T06:54:50;14.77;;;4.95;;
72771;SDS011;60894;42.544;1.516;2023-05-10T06:57:17;8.73;;;3.72;;
72771;SDS011;60894;42.544;1.516;2023-05-10T06:59:44;9.10;;;4.75;;
72771;SDS011;60894;42.544;1.516;2023-05-10T07:02:11;7.72;;;3.38;;
72771;SDS011;60894;42.544;1.516;2023-05-10T07:04:40;3.13;;;1.50;;
72771;SDS011;60894;42.544;1.516;2023-05-10T07:07:06;7.07;;;2.03;;
72771;SDS011;60894;42.544;1.516;2023-05-10T07:09:35;6.70;;;2.40;;
72771;SDS011;60894;42.544;1.516;2023-05-10T07:12:02;4.05;;;1.42;;
72771;SDS011;60894;42.544;1.516;2023-05-10T07:14:29;3.90;;;1.20;;
72771;SDS011;60894;42.544;1.516;2023-05-10T07:16:56;4.30;;;1.50;;
72771;SDS011;60894;42.544;1.516;2023-05-10T07:19:23;0.95;;;0.40;;
72771;SDS011;60894;42.544;1.516;2023-05-10T07:21:50;1.55;;;0.50;;
72771;SDS011;60894;42.544;1.516;2023-05-10T07:24:17;5.03;;;1.23;;
72771;SDS011;60894;42.544;1.516;2023-05-10T07:26:45;2.58;;;0.80;;
72771;SDS011;60894;42.544;1.516;2023-05-10T07:29:12;2.90;;;0.60;;
72771;SDS011;60894;42.544;1.516;2023-05-10T07:31:39;1.90;;;0.60;;
72771;SDS011;60894;42.544;1.516;2023-05-10T07:34:07;1.65;;;0.40;;
72771;SDS011;60894;42.544;1.516;2023-05-10T07:36:34;2.90;;;0.40;;
72771;SDS011;60894;42.544;1.516;2023-05-10T07:39:01;1.95;;;0.52;;
72771;SDS011;60894;42.544;1.516;2023-05-10T07:41:28;4.23;;;1.40;;
72771;SDS011;60894;42.544;1.516;2023-05-10T07:43:56;3.78;;;0.68;;
72771;SDS011;60894;42.544;1.516;2023-05-10T07:46:23;3.47;;;0.40;;
72771;SDS011;60894;42.544;1.516;2023-05-10T07:48:50;2.75;;;0.50;;
72771;SDS011;60894;42.544;1.516;2023-05-10T07:51:17;2.42;;;0.47;;
72771;SDS011;60894;42.544;1.516;2023-05-10T07:53:44;2.80;;;0.60;;
72771;SDS011;60894;42.544;1.516;2023-05-10T07:56:21;1.05;;;0.50;;
72771;SDS011;60894;42.544;1.516;2023-05-10T07:58:49;3.90;;;0.90;;
72771;SDS011;60894;42.544;1.516;2023-05-10T08:01:19;2.97;;;0.60;;
72771;SDS011;60894;42.544;1.516;2023-05-10T08:03:46;1.50;;;0.45;;
72771;SDS011;60894;42.544;1.516;2023-05-10T08:06:13;1.13;;;0.40;;
72771;SDS011;60894;42.544;1.516;2023-05-10T08:08:40;1.75;;;0.30;;
72771;SDS011;60894;42.544;1.516;2023-05-10T08:11:07;1.15;;;0.25;;
72771;SDS011;60894;42.544;1.516;2023-05-10T08:13:34;4.68;;;1.38;;
72771;SDS011;60894;42.544;1.516;2023-05-10T08:16:01;1.58;;;0.25;;
72771;SDS011;60894;42.544;1.516;2023-05-10T08:18:30;2.07;;;0.30;;
72771;SDS011;60894;42.544;1.516;2023-05-10T08:20:56;1.90;;;0.28;;
72771;SDS011;60894;42.544;1.516;2023-05-10T08:23:23;0.82;;;0.50;;
72771;SDS011;60894;42.544;1.516;2023-05-10T08:25:51;1.25;;;0.38;;
72771;SDS011;60894;42.544;1.516;2023-05-10T08:28:17;2.42;;;0.50;;
72771;SDS011;60894;42.544;1.516;2023-05-10T08:30:44;3.57;;;1.10;;
72771;SDS011;60894;42.544;1.516;2023-05-10T08:33:11;1.67;;;0.65;;
72771;SDS011;60894;42.544;1.516;2023-05-10T08:35:40;2.03;;;0.60;;
72771;SDS011;60894;42.544;1.516;2023-05-10T08:38:07;1.88;;;0.90;;
72771;SDS011;60894;42.544;1.516;2023-05-10T08:40:34;1.58;;;0.60;;
72771;SDS011;60894;42.544;1.516;2023-05-10T08:43:04;1.23;;;0.30;;
72771;SDS011;60894;42.544;1.516;2023-05-10T08:45:33;0.20;;;0.20;;
72771;SDS011;60894;42.544;1.516;2023-05-10T08:48:06;4.10;;;1.45;;
72771;SDS011;60894;42.544;1.516;2023-05-10T08:50:34;1.15;;;0.40;;
72771;SDS011;60894;42.544;1.516;2023-05-10T08:53:05;2.15;;;0.77;;
72771;SDS011;60894;42.544;1.516;2023-05-10T08:55:34;0.70;;;0.37;;
72771;SDS011;60894;42.544;1.516;2023-05-10T08:58:03;1.08;;;0.28;;
72771;SDS011;60894;42.544;1.516;2023-05-10T09:00:31;1.60;;;0.30;;
72771;SDS011;60894;42.544;1.516;2023-05-10T09:02:58;1.23;;;0.30;;
72771;SDS011;60894;42.544;1.516;2023-05-10T09:05:25;2.85;;;0.70;;
72771;SDS011;60894;42.544;1.516;2023-05-10T09:07:52;0.77;;;0.40;;
72771;SDS011;60894;42.544;1.516;2023-05-10T09:10:20;2.65;;;0.40;;
72771;SDS011;60894;42.544;1.516;2023-05-10T09:12:48;0.95;;;0.30;;
72771;SDS011;60894;42.544;1.516;2023-05-10T09:15:15;1.20;;;0.28;;
72771;SDS011;60894;42.544;1.516;2023-05-10T09:17:44;1.13;;;0.32;;
72771;SDS011;60894;42.544;1.516;2023-05-10T09:20:12;1.60;;;0.30;;
72771;SDS011;60894;42.544;1.516;2023-05-10T09:22:39;1.10;;;0.30;;
72771;SDS011;60894;42.544;1.516;2023-05-10T09:25:06;3.28;;;0.90;;
72771;SDS011;60894;42.544;1.516;2023-05-10T09:27:37;0.80;;;0.30;;
72771;SDS011;60894;42.544;1.516;2023-05-10T09:30:05;0.77;;;0.40;;
72771;SDS011;60894;42.544;1.516;2023-05-10T09:32:37;1.70;;;0.37;;
72771;SDS011;60894;42.544;1.516;2023-05-10T09:35:08;1.90;;;0.30;;
72771;SDS011;60894;42.544;1.516;2023-05-10T09:37:36;1.25;;;0.30;;
72771;SDS011;60894;42.544;1.516;2023-05-10T09:40:06;0.28;;;0.28;;
72771;SDS011;60894;42.544;1.516;2023-05-10T09:42:34;3.53;;;1.30;;
72771;SDS011;60894;42.544;1.516;2023-05-10T09:45:04;2.43;;;0.70;;
72771;SDS011;60894;42.544;1.516;2023-05-10T09:47:32;2.25;;;0.50;;
72771;SDS011;60894;42.544;1.516;2023-05-10T09:50:01;1.00;;;0.20;;
72771;SDS011;60894;42.544;1.516;2023-05-10T09:52:29;3.08;;;0.80;;
72771;SDS011;60894;42.544;1.516;2023-05-10T09:54:57;1.05;;;0.50;;
72771;SDS011;60894;42.544;1.516;2023-05-10T09:57:24;1.57;;;0.40;;
72771;SDS011;60894;42.544;1.516;2023-05-10T09:59:52;4.28;;;1.50;;
72771;SDS011;60894;42.544;1.516;2023-05-10T10:02:21;3.28;;;1.63;;
72771;SDS011;60894;42.544;1.516;2023-05-10T10:04:55;0.60;;;0.30;;
72771;SDS011;60894;42.544;1.516;2023-05-10T10:07:22;2.08;;;0.70;;
72771;SDS011;60894;42.544;1.516;2023-05-10T10:09:51;1.63;;;0.50;;
72771;SDS011;60894;42.544;1.516;2023-05-10T10:12:19;1.33;;;0.43;;
72771;SDS011;60894;42.544;1.516;2023-05-10T10:14:46;0.90;;;0.38;;
72771;SDS011;60894;42.544;1.516;2023-05-10T10:17:15;1.83;;;0.70;;
72771;SDS011;60894;42.544;1.516;2023-05-10T10:19:44;1.75;;;0.45;;
72771;SDS011;60894;42.544;1.516;2023-05-10T10:22:11;1.53;;;0.40;;
72771;SDS011;60894;42.544;1.516;2023-05-10T10:24:38;1.58;;;0.50;;
72771;SDS011;60894;42.544;1.516;2023-05-10T10:27:13;2.33;;;0.70;;
72771;SDS011;60894;42.544;1.516;2023-05-10T10:29:49;3.55;;;0.70;;
72771;SDS011;60894;42.544;1.516;2023-05-10T10:32:26;2.40;;;1.00;;
72771;SDS011;60894;42.544;1.516;2023-05-10T10:35:01;2.40;;;0.90;;
72771;SDS011;60894;42.544;1.516;2023-05-10T10:37:42;3.17;;;0.95;;
72771;SDS011;60894;42.544;1.516;2023-05-10T10:40:22;3.03;;;0.90;;
72771;SDS011;60894;42.544;1.516;2023-05-10T10:42:50;2.13;;;0.70;;
72771;SDS011;60894;42.544;1.516;2023-05-10T10:45:19;3.42;;;0.70;;
72771;SDS011;60894;42.544;1.516;2023-05-10T10:47:47;2.67;;;0.77;;
72771;SDS011;60894;42.544;1.516;2023-05-10T10:50:16;3.00;;;0.50;;
72771;SDS011;60894;42.544;1.516;2023-05-10T10:52:43;0.98;;;0.32;;
72771;SDS011;60894;42.544;1.516;2023-05-10T10:55:11;4.05;;;0.82;;
72771;SDS011;60894;42.544;1.516;2023-05-10T10:57:42;1.52;;;0.85;;
72771;SDS011;60894;42.544;1.516;2023-05-10T11:00:26;2.03;;;0.50;;
72771;SDS011;60894;42.544;1.516;2023-05-10T11:02:56;0.93;;;0.43;;
72771;SDS011;60894;42.544;1.516;2023-05-10T11:05:33;1.00;;;0.50;;
72771;SDS011;60894;42.544;1.516;2023-05-10T11:08:08;3.40;;;1.10;;
72771;SDS011;60894;42.544;1.516;2023-05-10T11:10:39;3.28;;;0.93;;
72771;SDS011;60894;42.544;1.516;2023-05-10T11:13:17;3.87;;;1.60;;
72771;SDS011;60894;42.544;1.516;2023-05-10T11:15:54;3.20;;;0.88;;
72771;SDS011;60894;42.544;1.516;2023-05-10T11:18:23;2.85;;;0.80;;
72771;SDS011;60894;42.544;1.516;2023-05-10T11:20:55;2.03;;;0.63;;
72771;SDS011;60894;42.544;1.516;2023-05-10T11:23:28;2.10;;;0.57;;
72771;SDS011;60894;42.544;1.516;2023-05-10T11:25:56;1.50;;;0.60;;
72771;SDS011;60894;42.544;1.516;2023-05-10T11:28:23;2.45;;;0.80;;
72771;SDS011;60894;42.544;1.516;2023-05-10T11:30:50;2.20;;;0.60;;
72771;SDS011;60894;42.544;1.516;2023-05-10T11:33:17;2.75;;;0.98;;
72771;SDS011;60894;42.544;1.516;2023-05-10T11:35:45;3.08;;;0.70;;
72771;SDS011;60894;42.544;1.516;2023-05-10T11:38:14;1.87;;;0.60;;
72771;SDS011;60894;42.544;1.516;2023-05-10T11:40:41;3.20;;;0.60;;
72771;SDS011;60894;42.544;1.516;2023-05-10T11:43:08;2.38;;;0.70;;
72771;SDS011;60894;42.544;1.516;2023-05-10T11:45:37;4.28;;;0.63;;
72771;SDS011;60894;42.544;1.516;2023-05-10T11:48:04;1.80;;;0.80;;
72771;SDS011;60894;42.544;1.516;2023-05-10T11:50:31;3.73;;;0.80;;
72771;SDS011;60894;42.544;1.516;2023-05-10T11:52:58;1.65;;;0.50;;
72771;SDS011;60894;42.544;1.516;2023-05-10T11:55:27;3.65;;;0.50;;
72771;SDS011;60894;42.544;1.516;2023-05-10T11:57:55;2.63;;;0.80;;
72771;SDS011;60894;42.544;1.516;2023-05-10T12:00:27;2.72;;;0.70;;
72771;SDS011;60894;42.544;1.516;2023-05-10T12:02:54;1.97;;;0.70;;
72771;SDS011;60894;42.544;1.516;2023-05-10T12:05:21;2.55;;;0.90;;
72771;SDS011;60894;42.544;1.516;2023-05-10T12:07:48;4.53;;;1.38;;
72771;SDS011;60894;42.544;1.516;2023-05-10T12:10:15;2.42;;;0.70;;
72771;SDS011;60894;42.544;1.516;2023-05-10T12:12:44;3.63;;;0.82;;
72771;SDS011;60894;42.544;1.516;2023-05-10T12:15:16;4.37;;;0.83;;
72771;SDS011;60894;42.544;1.516;2023-05-10T12:17:44;5.13;;;1.20;;
72771;SDS011;60894;42.544;1.516;2023-05-10T12:20:15;5.47;;;0.93;;
72771;SDS011;60894;42.544;1.516;2023-05-10T12:22:47;8.23;;;1.38;;
72771;SDS011;60894;42.544;1.516;2023-05-10T12:25:16;3.80;;;0.70;;
72771;SDS011;60894;42.544;1.516;2023-05-10T12:27:51;4.07;;;0.87;;
72771;SDS011;60894;42.544;1.516;2023-05-10T12:30:20;10.07;;;0.98;;
72771;SDS011;60894;42.544;1.516;2023-05-10T12:32:48;4.45;;;1.05;;
72771;SDS011;60894;42.544;1.516;2023-05-10T12:35:15;7.95;;;1.10;;
72771;SDS011;60894;42.544;1.516;2023-05-10T12:37:42;10.02;;;4.30;;
72771;SDS011;60894;42.544;1.516;2023-05-10T12:40:10;3.60;;;0.70;;
72771;SDS011;60894;42.544;1.516;2023-05-10T12:42:38;1.73;;;0.40;;
72771;SDS011;60894;42.544;1.516;2023-05-10T12:45:07;3.88;;;1.20;;
72771;SDS011;60894;42.544;1.516;2023-05-10T12:47:35;2.13;;;0.60;;
72771;SDS011;60894;42.544;1.516;2023-05-10T12:50:02;5.20;;;1.30;;
72771;SDS011;60894;42.544;1.516;2023-05-10T12:52:30;2.57;;;0.90;;
72771;SDS011;60894;42.544;1.516;2023-05-10T12:54:58;1.52;;;0.50;;
72771;SDS011;60894;42.544;1.516;2023-05-10T12:57:25;6.15;;;1.25;;
72771;SDS011;60894;42.544;1.516;2023-05-10T12:59:52;3.53;;;0.70;;
72771;SDS011;60894;42.544;1.516;2023-05-10T13:02:22;3.10;;;0.77;;
72771;SDS011;60894;42.544;1.516;2023-05-10T13:04:49;1.53;;;0.50;;
72771;SDS011;60894;42.544;1.516;2023-05-10T13:07:16;3.70;;;0.90;;
72771;SDS011;60894;42.544;1.516;2023-05-10T13:09:43;3.63;;;0.70;;
72771;SDS011;60894;42.544;1.516;2023-05-10T13:12:10;2.30;;;0.68;;
72771;SDS011;60894;42.544;1.516;2023-05-10T13:14:37;1.42;;;0.60;;
72771;SDS011;60894;42.544;1.516;2023-05-10T13:17:05;2.57;;;0.53;;
72771;SDS011;60894;42.544;1.516;2023-05-10T13:19:34;3.35;;;0.80;;
72771;SDS011;60894;42.544;1.516;2023-05-10T13:22:01;1.95;;;0.65;;
72771;SDS011;60894;42.544;1.516;2023-05-10T13:24:29;2.60;;;0.82;;
72771;SDS011;60894;42.544;1.516;2023-05-10T13:26:55;1.73;;;0.60;;
72771;SDS011;60894;42.544;1.516;2023-05-10T13:29:22;3.30;;;0.97;;
72771;SDS011;60894;42.544;1.516;2023-05-10T13:31:49;2.78;;;0.70;;
72771;SDS011;60894;42.544;1.516;2023-05-10T13:34:16;3.53;;;0.70;;
72771;SDS011;60894;42.544;1.516;2023-05-10T13:36:47;2.67;;;0.70;;
72771;SDS011;60894;42.544;1.516;2023-05-10T13:39:14;2.92;;;0.70;;
72771;SDS011;60894;42.544;1.516;2023-05-10T13:41:41;2.03;;;0.53;;
72771;SDS011;60894;42.544;1.516;2023-05-10T13:44:08;1.42;;;0.50;;
72771;SDS011;60894;42.544;1.516;2023-05-10T13:46:36;3.67;;;0.70;;
72771;SDS011;60894;42.544;1.516;2023-05-10T13:49:03;3.70;;;0.80;;
72771;SDS011;60894;42.544;1.516;2023-05-10T13:51:30;3.13;;;0.70;;
72771;SDS011;60894;42.544;1.516;2023-05-10T13:53:59;3.10;;;0.60;;
72771;SDS011;60894;42.544;1.516;2023-05-10T13:56:26;1.55;;;0.50;;
72771;SDS011;60894;42.544;1.516;2023-05-10T13:58:55;2.95;;;0.70;;
72771;SDS011;60894;42.544;1.516;2023-05-10T14:01:23;2.60;;;0.95;;
72771;SDS011;60894;42.544;1.516;2023-05-10T14:03:50;4.43;;;0.90;;
72771;SDS011;60894;42.544;1.516;2023-05-10T14:06:17;3.90;;;0.70;;
72771;SDS011;60894;42.544;1.516;2023-05-10T14:08:44;3.72;;;0.70;;
72771;SDS011;60894;42.544;1.516;2023-05-10T14:11:12;1.58;;;0.70;;
72771;SDS011;60894;42.544;1.516;2023-05-10T14:13:39;3.80;;;0.70;;
72771;SDS011;60894;42.544;1.516;2023-05-10T14:16:06;1.58;;;0.60;;
72771;SDS011;60894;42.544;1.516;2023-05-10T14:18:33;2.87;;;0.80;;
72771;SDS011;60894;42.544;1.516;2023-05-10T14:21:01;2.95;;;0.75;;
72771;SDS011;60894;42.544;1.516;2023-05-10T14:23:28;2.22;;;0.70;;
72771;SDS011;60894;42.544;1.516;2023-05-10T14:25:55;1.10;;;0.40;;
72771;SDS011;60894;42.544;1.516;2023-05-10T14:28:24;2.78;;;0.57;;
72771;SDS011;60894;42.544;1.516;2023-05-10T14:30:51;2.70;;;1.00;;
72771;SDS011;60894;42.544;1.516;2023-05-10T14:33:18;3.92;;;0.70;;
72771;SDS011;60894;42.544;1.516;2023-05-10T14:35:45;2.53;;;0.70;;
72771;SDS011;60894;42.544;1.516;2023-05-10T14:38:13;2.78;;;0.77;;
72771;SDS011;60894;42.544;1.516;2023-05-10T14:40:40;2.00;;;0.80;;
72771;SDS011;60894;42.544;1.516;2023-05-10T14:43:07;2.07;;;0.70;;
72771;SDS011;60894;42.544;1.516;2023-05-10T14:45:35;2.17;;;0.70;;
72771;SDS011;60894;42.544;1.516;2023-05-10T14:48:02;1.63;;;0.60;;
72771;SDS011;60894;42.544;1.516;2023-05-10T14:50:29;5.53;;;0.75;;
72771;SDS011;60894;42.544;1.516;2023-05-10T14:52:56;5.30;;;0.90;;
72771;SDS011;60894;42.544;1.516;2023-05-10T14:55:24;1.63;;;0.50;;
72771;SDS011;60894;42.544;1.516;2023-05-10T14:57:51;3.60;;;0.80;;
72771;SDS011;60894;42.544;1.516;2023-05-10T15:00:18;2.78;;;0.63;;
72771;SDS011;60894;42.544;1.516;2023-05-10T15:02:47;4.13;;;0.60;;